CheckWX is a tool to help pilots better visualize weather data.  It is not intended as a substitute for an official pre-flight weather briefing.

13:40:22 UTC

LFPN TAF
Toussus-le-Noble Airport
Toussus-le-Noble, France
TAF LFPN 211100Z 2112/2121 14008KT CAVOK

Sep-21@
12:00 UTC

Sep-21 @ 12:00 UTC

Sep-21@
21:00 UTC

Sep-21 @ 21:00 UTC

TAF LFPN 211100Z 2112/2121 14008KT CAVOK
Wind
  • 140° at 8 KTS
Conditions
No significant weather
Cloud Levels
  • No significant clouds